sensor_id;sensor_type;location;lat;lon;timestamp;P1;durP1;ratioP1;P2;durP2;ratioP2
59516;SDS011;45342;42.662;27.718;2022-08-18T00:00:05;10.85;;;9.75;;
59516;SDS011;45342;42.662;27.718;2022-08-18T00:02:36;10.88;;;9.75;;
59516;SDS011;45342;42.662;27.718;2022-08-18T00:05:03;11.05;;;9.73;;
59516;SDS011;45342;42.662;27.718;2022-08-18T00:09:56;10.80;;;9.70;;
59516;SDS011;45342;42.662;27.718;2022-08-18T00:12:26;10.85;;;9.75;;
59516;SDS011;45342;42.662;27.718;2022-08-18T00:14:55;16.35;;;10.32;;
59516;SDS011;45342;42.662;27.718;2022-08-18T00:17:21;11.00;;;9.90;;
59516;SDS011;45342;42.662;27.718;2022-08-18T00:19:47;12.57;;;10.30;;
59516;SDS011;45342;42.662;27.718;2022-08-18T00:22:15;11.40;;;10.20;;
59516;SDS011;45342;42.662;27.718;2022-08-18T00:24:47;11.48;;;10.20;;
59516;SDS011;45342;42.662;27.718;2022-08-18T00:27:35;12.15;;;10.02;;
59516;SDS011;45342;42.662;27.718;2022-08-18T00:32:29;10.15;;;9.13;;
59516;SDS011;45342;42.662;27.718;2022-08-18T00:35:03;12.40;;;10.18;;
59516;SDS011;45342;42.662;27.718;2022-08-18T00:37:45;11.10;;;10.00;;
59516;SDS011;45342;42.662;27.718;2022-08-18T00:40:12;12.63;;;10.18;;
59516;SDS011;45342;42.662;27.718;2022-08-18T00:42:42;11.00;;;9.50;;
59516;SDS011;45342;42.662;27.718;2022-08-18T00:45:15;11.63;;;10.43;;
59516;SDS011;45342;42.662;27.718;2022-08-18T00:47:44;11.07;;;9.98;;
59516;SDS011;45342;42.662;27.718;2022-08-18T00:52:37;10.35;;;9.27;;
59516;SDS011;45342;42.662;27.718;2022-08-18T00:57:32;13.82;;;10.05;;
59516;SDS011;45342;42.662;27.718;2022-08-18T01:00:03;10.88;;;9.77;;
59516;SDS011;45342;42.662;27.718;2022-08-18T01:02:36;11.23;;;10.02;;
59516;SDS011;45342;42.662;27.718;2022-08-18T01:05:15;10.38;;;9.35;;
59516;SDS011;45342;42.662;27.718;2022-08-18T01:07:43;10.88;;;9.77;;
59516;SDS011;45342;42.662;27.718;2022-08-18T01:10:12;11.90;;;9.70;;
59516;SDS011;45342;42.662;27.718;2022-08-18T01:12:43;11.13;;;9.68;;
59516;SDS011;45342;42.662;27.718;2022-08-18T01:15:09;11.93;;;9.90;;
59516;SDS011;45342;42.662;27.718;2022-08-18T01:17:38;11.73;;;9.73;;
59516;SDS011;45342;42.662;27.718;2022-08-18T01:20:33;9.98;;;8.98;;
59516;SDS011;45342;42.662;27.718;2022-08-18T01:23:20;11.55;;;9.65;;
59516;SDS011;45342;42.662;27.718;2022-08-18T01:25:46;11.40;;;9.82;;
59516;SDS011;45342;42.662;27.718;2022-08-18T01:28:29;12.07;;;10.25;;
59516;SDS011;45342;42.662;27.718;2022-08-18T01:30:57;11.38;;;9.98;;
59516;SDS011;45342;42.662;27.718;2022-08-18T01:33:25;10.57;;;9.55;;
59516;SDS011;45342;42.662;27.718;2022-08-18T01:35:57;10.63;;;9.30;;
59516;SDS011;45342;42.662;27.718;2022-08-18T01:38:25;10.13;;;9.13;;
59516;SDS011;45342;42.662;27.718;2022-08-18T01:40:51;11.45;;;9.63;;
59516;SDS011;45342;42.662;27.718;2022-08-18T01:43:19;11.70;;;9.60;;
59516;SDS011;45342;42.662;27.718;2022-08-18T01:45:45;10.75;;;9.65;;
59516;SDS011;45342;42.662;27.718;2022-08-18T01:48:13;11.05;;;9.95;;
59516;SDS011;45342;42.662;27.718;2022-08-18T01:53:07;11.63;;;8.93;;
59516;SDS011;45342;42.662;27.718;2022-08-18T01:55:35;10.55;;;9.45;;
59516;SDS011;45342;42.662;27.718;2022-08-18T01:58:03;9.95;;;8.95;;
59516;SDS011;45342;42.662;27.718;2022-08-18T02:00:31;10.50;;;9.27;;
59516;SDS011;45342;42.662;27.718;2022-08-18T02:05:23;10.05;;;9.05;;
59516;SDS011;45342;42.662;27.718;2022-08-18T02:07:55;10.52;;;9.13;;
59516;SDS011;45342;42.662;27.718;2022-08-18T02:12:49;10.25;;;9.00;;
59516;SDS011;45342;42.662;27.718;2022-08-18T02:17:41;9.57;;;8.45;;
59516;SDS011;45342;42.662;27.718;2022-08-18T02:20:08;10.13;;;8.90;;
59516;SDS011;45342;42.662;27.718;2022-08-18T02:22:36;9.73;;;8.73;;
59516;SDS011;45342;42.662;27.718;2022-08-18T02:27:28;9.57;;;8.57;;
59516;SDS011;45342;42.662;27.718;2022-08-18T02:29:54;10.13;;;8.68;;
59516;SDS011;45342;42.662;27.718;2022-08-18T02:32:20;9.80;;;8.73;;
59516;SDS011;45342;42.662;27.718;2022-08-18T02:34:46;9.40;;;8.50;;
59516;SDS011;45342;42.662;27.718;2022-08-18T02:39:37;12.10;;;8.77;;
59516;SDS011;45342;42.662;27.718;2022-08-18T02:42:04;9.95;;;8.95;;
59516;SDS011;45342;42.662;27.718;2022-08-18T02:44:30;9.43;;;8.43;;
59516;SDS011;45342;42.662;27.718;2022-08-18T02:46:56;9.32;;;8.13;;
59516;SDS011;45342;42.662;27.718;2022-08-18T02:49:22;9.25;;;8.32;;
59516;SDS011;45342;42.662;27.718;2022-08-18T02:51:53;8.80;;;7.90;;
59516;SDS011;45342;42.662;27.718;2022-08-18T02:56:47;9.27;;;8.25;;
59516;SDS011;45342;42.662;27.718;2022-08-18T02:59:19;9.10;;;7.90;;
59516;SDS011;45342;42.662;27.718;2022-08-18T03:01:49;9.27;;;8.02;;
59516;SDS011;45342;42.662;27.718;2022-08-18T03:04:17;9.18;;;8.27;;
59516;SDS011;45342;42.662;27.718;2022-08-18T03:06:49;10.38;;;8.73;;
59516;SDS011;45342;42.662;27.718;2022-08-18T03:11:42;10.30;;;8.50;;
59516;SDS011;45342;42.662;27.718;2022-08-18T03:14:08;8.68;;;7.75;;
59516;SDS011;45342;42.662;27.718;2022-08-18T03:16:34;8.70;;;7.85;;
59516;SDS011;45342;42.662;27.718;2022-08-18T03:19:02;8.32;;;7.53;;
59516;SDS011;45342;42.662;27.718;2022-08-18T03:23:54;9.20;;;7.90;;
59516;SDS011;45342;42.662;27.718;2022-08-18T03:26:21;7.90;;;7.10;;
59516;SDS011;45342;42.662;27.718;2022-08-18T03:28:48;8.75;;;7.85;;
59516;SDS011;45342;42.662;27.718;2022-08-18T03:31:16;9.30;;;8.05;;
59516;SDS011;45342;42.662;27.718;2022-08-18T03:33:43;8.25;;;7.45;;
59516;SDS011;45342;42.662;27.718;2022-08-18T03:36:11;8.48;;;7.68;;
59516;SDS011;45342;42.662;27.718;2022-08-18T03:38:38;8.88;;;7.97;;
59516;SDS011;45342;42.662;27.718;2022-08-18T03:41:08;8.30;;;7.38;;
59516;SDS011;45342;42.662;27.718;2022-08-18T03:43:35;8.98;;;8.13;;
59516;SDS011;45342;42.662;27.718;2022-08-18T03:48:27;9.07;;;7.13;;
59516;SDS011;45342;42.662;27.718;2022-08-18T03:50:53;8.63;;;7.72;;
59516;SDS011;45342;42.662;27.718;2022-08-18T03:55:45;8.90;;;7.80;;
59516;SDS011;45342;42.662;27.718;2022-08-18T04:00:39;8.23;;;7.43;;
59516;SDS011;45342;42.662;27.718;2022-08-18T04:05:31;8.48;;;7.68;;
59516;SDS011;45342;42.662;27.718;2022-08-18T04:07:59;8.60;;;7.70;;
59516;SDS011;45342;42.662;27.718;2022-08-18T04:10:25;8.43;;;7.63;;
59516;SDS011;45342;42.662;27.718;2022-08-18T04:15:16;8.43;;;7.47;;
59516;SDS011;45342;42.662;27.718;2022-08-18T04:17:42;8.45;;;7.65;;
59516;SDS011;45342;42.662;27.718;2022-08-18T04:20:10;7.65;;;6.80;;
59516;SDS011;45342;42.662;27.718;2022-08-18T04:22:36;8.02;;;7.32;;
59516;SDS011;45342;42.662;27.718;2022-08-18T04:27:28;10.27;;;7.80;;
59516;SDS011;45342;42.662;27.718;2022-08-18T04:29:54;8.40;;;7.60;;
59516;SDS011;45342;42.662;27.718;2022-08-18T04:32:22;8.65;;;7.80;;
59516;SDS011;45342;42.662;27.718;2022-08-18T04:37:14;8.68;;;7.60;;
59516;SDS011;45342;42.662;27.718;2022-08-18T04:39:40;8.88;;;7.97;;
59516;SDS011;45342;42.662;27.718;2022-08-18T04:42:06;8.82;;;8.02;;
59516;SDS011;45342;42.662;27.718;2022-08-18T04:46:59;8.40;;;7.60;;
59516;SDS011;45342;42.662;27.718;2022-08-18T04:49:25;10.05;;;7.95;;
59516;SDS011;45342;42.662;27.718;2022-08-18T04:54:36;7.55;;;6.85;;
59516;SDS011;45342;42.662;27.718;2022-08-18T04:57:07;8.25;;;7.13;;
59516;SDS011;45342;42.662;27.718;2022-08-18T04:59:34;7.20;;;6.50;;
59516;SDS011;45342;42.662;27.718;2022-08-18T05:02:00;7.40;;;6.70;;
59516;SDS011;45342;42.662;27.718;2022-08-18T05:04:30;7.75;;;7.05;;
59516;SDS011;45342;42.662;27.718;2022-08-18T05:06:56;8.35;;;7.55;;
59516;SDS011;45342;42.662;27.718;2022-08-18T05:11:47;8.27;;;7.47;;
59516;SDS011;45342;42.662;27.718;2022-08-18T05:14:12;8.35;;;7.55;;
59516;SDS011;45342;42.662;27.718;2022-08-18T05:16:38;8.23;;;7.43;;
59516;SDS011;45342;42.662;27.718;2022-08-18T05:19:05;8.50;;;7.70;;
59516;SDS011;45342;42.662;27.718;2022-08-18T05:21:32;8.05;;;7.25;;
59516;SDS011;45342;42.662;27.718;2022-08-18T05:23:58;8.18;;;7.38;;
59516;SDS011;45342;42.662;27.718;2022-08-18T05:26:25;8.05;;;7.07;;
59516;SDS011;45342;42.662;27.718;2022-08-18T05:28:51;8.18;;;7.38;;
59516;SDS011;45342;42.662;27.718;2022-08-18T05:33:44;8.90;;;7.28;;
59516;SDS011;45342;42.662;27.718;2022-08-18T05:39:02;8.65;;;7.72;;
59516;SDS011;45342;42.662;27.718;2022-08-18T05:41:38;9.20;;;7.95;;
59516;SDS011;45342;42.662;27.718;2022-08-18T05:44:06;8.82;;;7.93;;
59516;SDS011;45342;42.662;27.718;2022-08-18T05:46:51;8.23;;;7.18;;
59516;SDS011;45342;42.662;27.718;2022-08-18T05:49:25;7.72;;;7.03;;
59516;SDS011;45342;42.662;27.718;2022-08-18T05:52:00;7.45;;;6.75;;
59516;SDS011;45342;42.662;27.718;2022-08-18T05:54:31;8.00;;;7.28;;
59516;SDS011;45342;42.662;27.718;2022-08-18T05:59:52;7.97;;;7.10;;
59516;SDS011;45342;42.662;27.718;2022-08-18T06:02:36;7.60;;;6.90;;
59516;SDS011;45342;42.662;27.718;2022-08-18T06:05:07;8.80;;;6.78;;
59516;SDS011;45342;42.662;27.718;2022-08-18T06:07:40;6.85;;;6.25;;
59516;SDS011;45342;42.662;27.718;2022-08-18T06:10:12;7.82;;;6.88;;
59516;SDS011;45342;42.662;27.718;2022-08-18T06:12:49;12.00;;;8.50;;
59516;SDS011;45342;42.662;27.718;2022-08-18T06:26:36;9.45;;;8.45;;
59516;SDS011;45342;42.662;27.718;2022-08-18T06:29:19;10.07;;;8.77;;
59516;SDS011;45342;42.662;27.718;2022-08-18T06:37:30;10.32;;;8.77;;
59516;SDS011;45342;42.662;27.718;2022-08-18T06:40:22;10.98;;;8.60;;
59516;SDS011;45342;42.662;27.718;2022-08-18T06:45:17;12.18;;;8.85;;
59516;SDS011;45342;42.662;27.718;2022-08-18T06:51:04;11.07;;;8.52;;
59516;SDS011;45342;42.662;27.718;2022-08-18T06:59:18;9.63;;;8.05;;
59516;SDS011;45342;42.662;27.718;2022-08-18T07:01:51;9.32;;;7.95;;
59516;SDS011;45342;42.662;27.718;2022-08-18T07:04:34;9.00;;;7.68;;
59516;SDS011;45342;42.662;27.718;2022-08-18T07:07:15;9.02;;;8.13;;
59516;SDS011;45342;42.662;27.718;2022-08-18T07:09:45;9.13;;;8.23;;
59516;SDS011;45342;42.662;27.718;2022-08-18T07:12:17;8.70;;;7.80;;
59516;SDS011;45342;42.662;27.718;2022-08-18T07:14:46;8.82;;;7.93;;
59516;SDS011;45342;42.662;27.718;2022-08-18T07:17:22;9.32;;;7.68;;
59516;SDS011;45342;42.662;27.718;2022-08-18T07:22:22;8.05;;;7.20;;
59516;SDS011;45342;42.662;27.718;2022-08-18T07:27:19;9.20;;;7.67;;
59516;SDS011;45342;42.662;27.718;2022-08-18T07:32:49;7.88;;;7.10;;
59516;SDS011;45342;42.662;27.718;2022-08-18T07:35:19;8.52;;;7.22;;
59516;SDS011;45342;42.662;27.718;2022-08-18T07:46:35;7.88;;;7.07;;
59516;SDS011;45342;42.662;27.718;2022-08-18T07:49:07;9.70;;;7.45;;
59516;SDS011;45342;42.662;27.718;2022-08-18T07:58:55;9.10;;;7.57;;
59516;SDS011;45342;42.662;27.718;2022-08-18T08:01:41;10.63;;;7.72;;
59516;SDS011;45342;42.662;27.718;2022-08-18T08:07:08;8.80;;;7.90;;
59516;SDS011;45342;42.662;27.718;2022-08-18T08:09:47;8.68;;;7.78;;
59516;SDS011;45342;42.662;27.718;2022-08-18T08:15:09;8.80;;;7.90;;
59516;SDS011;45342;42.662;27.718;2022-08-18T08:17:49;8.23;;;7.43;;
59516;SDS011;45342;42.662;27.718;2022-08-18T08:20:38;8.20;;;7.40;;
59516;SDS011;45342;42.662;27.718;2022-08-18T08:32:10;8.73;;;7.82;;
59516;SDS011;45342;42.662;27.718;2022-08-18T08:34:26;8.80;;;7.93;;
59516;SDS011;45342;42.662;27.718;2022-08-18T08:36:57;8.77;;;7.80;;
59516;SDS011;45342;42.662;27.718;2022-08-18T08:39:31;8.57;;;7.68;;
59516;SDS011;45342;42.662;27.718;2022-08-18T08:42:06;8.25;;;7.45;;
59516;SDS011;45342;42.662;27.718;2022-08-18T08:44:41;9.30;;;8.40;;
59516;SDS011;45342;42.662;27.718;2022-08-18T08:47:31;8.60;;;7.80;;
59516;SDS011;45342;42.662;27.718;2022-08-18T08:50:03;8.30;;;7.50;;
59516;SDS011;45342;42.662;27.718;2022-08-18T08:52:37;8.88;;;7.95;;
59516;SDS011;45342;42.662;27.718;2022-08-18T08:55:15;8.38;;;7.57;;
59516;SDS011;45342;42.662;27.718;2022-08-18T08:57:44;9.07;;;7.57;;
59516;SDS011;45342;42.662;27.718;2022-08-18T09:00:14;8.85;;;7.95;;
59516;SDS011;45342;42.662;27.718;2022-08-18T09:05:13;7.97;;;7.18;;
59516;SDS011;45342;42.662;27.718;2022-08-18T09:13:59;8.27;;;7.45;;
59516;SDS011;45342;42.662;27.718;2022-08-18T09:24:49;8.20;;;7.40;;
59516;SDS011;45342;42.662;27.718;2022-08-18T09:33:20;8.10;;;7.30;;
59516;SDS011;45342;42.662;27.718;2022-08-18T09:39:06;7.38;;;6.68;;
59516;SDS011;45342;42.662;27.718;2022-08-18T09:42:02;8.07;;;7.22;;
59516;SDS011;45342;42.662;27.718;2022-08-18T09:47:10;8.00;;;7.20;;
59516;SDS011;45342;42.662;27.718;2022-08-18T09:49:52;8.82;;;7.82;;
59516;SDS011;45342;42.662;27.718;2022-08-18T09:55:07;9.27;;;7.22;;
59516;SDS011;45342;42.662;27.718;2022-08-18T09:57:33;8.80;;;7.20;;
59516;SDS011;45342;42.662;27.718;2022-08-18T10:10:21;8.57;;;7.68;;
59516;SDS011;45342;42.662;27.718;2022-08-18T10:13:00;8.95;;;7.95;;
59516;SDS011;45342;42.662;27.718;2022-08-18T10:23:58;8.20;;;7.40;;
59516;SDS011;45342;42.662;27.718;2022-08-18T10:37:22;8.38;;;7.22;;
59516;SDS011;45342;42.662;27.718;2022-08-18T10:45:33;8.73;;;7.90;;
59516;SDS011;45342;42.662;27.718;2022-08-18T10:53:34;7.72;;;6.97;;
59516;SDS011;45342;42.662;27.718;2022-08-18T11:01:51;8.40;;;7.55;;
59516;SDS011;45342;42.662;27.718;2022-08-18T11:07:33;8.15;;;7.28;;
59516;SDS011;45342;42.662;27.718;2022-08-18T11:10:14;8.95;;;8.02;;
59516;SDS011;45342;42.662;27.718;2022-08-18T11:18:23;8.25;;;7.35;;
59516;SDS011;45342;42.662;27.718;2022-08-18T11:24:05;9.10;;;7.90;;
59516;SDS011;45342;42.662;27.718;2022-08-18T11:26:44;7.78;;;6.97;;
59516;SDS011;45342;42.662;27.718;2022-08-18T11:34:45;8.60;;;7.38;;
59516;SDS011;45342;42.662;27.718;2022-08-18T11:37:24;8.65;;;7.70;;
59516;SDS011;45342;42.662;27.718;2022-08-18T11:39:56;8.07;;;7.28;;
59516;SDS011;45342;42.662;27.718;2022-08-18T11:42:27;8.95;;;7.47;;
59516;SDS011;45342;42.662;27.718;2022-08-18T11:45:01;8.75;;;7.95;;
59516;SDS011;45342;42.662;27.718;2022-08-18T11:48:08;8.38;;;7.38;;
59516;SDS011;45342;42.662;27.718;2022-08-18T11:50:48;8.90;;;7.97;;
59516;SDS011;45342;42.662;27.718;2022-08-18T11:58:49;9.77;;;8.10;;
59516;SDS011;45342;42.662;27.718;2022-08-18T12:01:30;9.93;;;8.10;;
59516;SDS011;45342;42.662;27.718;2022-08-18T12:04:12;9.57;;;8.57;;
59516;SDS011;45342;42.662;27.718;2022-08-18T12:12:18;9.30;;;7.88;;
59516;SDS011;45342;42.662;27.718;2022-08-18T12:14:55;8.70;;;7.80;;
59516;SDS011;45342;42.662;27.718;2022-08-18T12:17:36;9.73;;;7.88;;
59516;SDS011;45342;42.662;27.718;2022-08-18T12:20:03;8.88;;;7.97;;
59516;SDS011;45342;42.662;27.718;2022-08-18T12:22:32;11.43;;;8.20;;
59516;SDS011;45342;42.662;27.718;2022-08-18T12:25:00;8.73;;;7.68;;
59516;SDS011;45342;42.662;27.718;2022-08-18T12:27:27;8.68;;;7.78;;
59516;SDS011;45342;42.662;27.718;2022-08-18T12:29:53;10.23;;;7.47;;
59516;SDS011;45342;42.662;27.718;2022-08-18T12:32:21;9.80;;;8.10;;
59516;SDS011;45342;42.662;27.718;2022-08-18T12:34:48;9.32;;;8.43;;
59516;SDS011;45342;42.662;27.718;2022-08-18T12:37:14;9.52;;;8.00;;
59516;SDS011;45342;42.662;27.718;2022-08-18T12:39:41;9.07;;;7.88;;
59516;SDS011;45342;42.662;27.718;2022-08-18T12:42:07;8.77;;;7.88;;
59516;SDS011;45342;42.662;27.718;2022-08-18T12:44:33;8.38;;;7.55;;
59516;SDS011;45342;42.662;27.718;2022-08-18T12:47:02;8.65;;;7.75;;
59516;SDS011;45342;42.662;27.718;2022-08-18T12:49:31;8.65;;;7.75;;
59516;SDS011;45342;42.662;27.718;2022-08-18T12:51:57;8.20;;;7.38;;
59516;SDS011;45342;42.662;27.718;2022-08-18T12:54:22;10.43;;;8.43;;
59516;SDS011;45342;42.662;27.718;2022-08-18T12:56:49;8.90;;;7.95;;
59516;SDS011;45342;42.662;27.718;2022-08-18T12:59:15;8.75;;;7.85;;
59516;SDS011;45342;42.662;27.718;2022-08-18T13:01:41;8.23;;;7.43;;
59516;SDS011;45342;42.662;27.718;2022-08-18T13:04:07;9.02;;;7.55;;
59516;SDS011;45342;42.662;27.718;2022-08-18T13:06:34;9.38;;;7.78;;
59516;SDS011;45342;42.662;27.718;2022-08-18T13:09:08;9.43;;;8.07;;
59516;SDS011;45342;42.662;27.718;2022-08-18T13:11:34;8.57;;;7.72;;
59516;SDS011;45342;42.662;27.718;2022-08-18T13:14:00;8.43;;;7.25;;
59516;SDS011;45342;42.662;27.718;2022-08-18T13:16:26;9.48;;;8.43;;
59516;SDS011;45342;42.662;27.718;2022-08-18T13:18:52;8.73;;;7.88;;
59516;SDS011;45342;42.662;27.718;2022-08-18T13:21:18;8.57;;;7.68;;
59516;SDS011;45342;42.662;27.718;2022-08-18T13:23:44;8.88;;;7.97;;
59516;SDS011;45342;42.662;27.718;2022-08-18T13:26:20;10.30;;;7.75;;
59516;SDS011;45342;42.662;27.718;2022-08-18T13:28:54;9.20;;;8.30;;
59516;SDS011;45342;42.662;27.718;2022-08-18T13:31:20;10.45;;;7.82;;
59516;SDS011;45342;42.662;27.718;2022-08-18T13:33:45;11.43;;;8.05;;
59516;SDS011;45342;42.662;27.718;2022-08-18T13:36:11;10.30;;;8.20;;
59516;SDS011;45342;42.662;27.718;2022-08-18T13:38:37;10.30;;;8.10;;
59516;SDS011;45342;42.662;27.718;2022-08-18T13:41:06;9.68;;;8.48;;
59516;SDS011;45342;42.662;27.718;2022-08-18T13:43:34;9.98;;;8.52;;
59516;SDS011;45342;42.662;27.718;2022-08-18T13:46:04;10.80;;;8.93;;
59516;SDS011;45342;42.662;27.718;2022-08-18T13:48:31;11.38;;;8.15;;
59516;SDS011;45342;42.662;27.718;2022-08-18T13:50:58;10.55;;;8.43;;
59516;SDS011;45342;42.662;27.718;2022-08-18T13:53:31;10.43;;;8.13;;
59516;SDS011;45342;42.662;27.718;2022-08-18T13:55:57;10.32;;;8.40;;
59516;SDS011;45342;42.662;27.718;2022-08-18T13:58:23;10.45;;;8.38;;
59516;SDS011;45342;42.662;27.718;2022-08-18T14:00:54;11.10;;;8.55;;
59516;SDS011;45342;42.662;27.718;2022-08-18T14:03:22;10.80;;;8.32;;
59516;SDS011;45342;42.662;27.718;2022-08-18T14:05:51;10.55;;;8.45;;
59516;SDS011;45342;42.662;27.718;2022-08-18T14:08:22;11.48;;;8.18;;
59516;SDS011;45342;42.662;27.718;2022-08-18T14:10:50;9.82;;;8.15;;
59516;SDS011;45342;42.662;27.718;2022-08-18T14:13:18;11.43;;;8.48;;
59516;SDS011;45342;42.662;27.718;2022-08-18T14:15:44;9.45;;;7.88;;
59516;SDS011;45342;42.662;27.718;2022-08-18T14:18:11;11.70;;;8.27;;
59516;SDS011;45342;42.662;27.718;2022-08-18T14:20:37;8.95;;;7.68;;
59516;SDS011;45342;42.662;27.718;2022-08-18T14:23:21;10.63;;;8.25;;
59516;SDS011;45342;42.662;27.718;2022-08-18T14:26:05;11.45;;;8.15;;
59516;SDS011;45342;42.662;27.718;2022-08-18T14:28:49;10.90;;;8.05;;
59516;SDS011;45342;42.662;27.718;2022-08-18T14:31:15;9.90;;;7.97;;
59516;SDS011;45342;42.662;27.718;2022-08-18T14:33:41;10.15;;;8.23;;
59516;SDS011;45342;42.662;27.718;2022-08-18T14:36:10;9.27;;;8.25;;
59516;SDS011;45342;42.662;27.718;2022-08-18T14:38:36;10.70;;;7.68;;
59516;SDS011;45342;42.662;27.718;2022-08-18T14:41:03;11.05;;;8.15;;
59516;SDS011;45342;42.662;27.718;2022-08-18T14:43:30;9.20;;;7.70;;
59516;SDS011;45342;42.662;27.718;2022-08-18T14:45:58;12.45;;;9.00;;
59516;SDS011;45342;42.662;27.718;2022-08-18T14:48:24;9.73;;;7.90;;
59516;SDS011;45342;42.662;27.718;2022-08-18T14:50:52;8.63;;;7.68;;
59516;SDS011;45342;42.662;27.718;2022-08-18T14:53:22;9.32;;;8.32;;
59516;SDS011;45342;42.662;27.718;2022-08-18T14:55:52;10.50;;;8.52;;
59516;SDS011;45342;42.662;27.718;2022-08-18T14:58:19;9.32;;;7.97;;
59516;SDS011;45342;42.662;27.718;2022-08-18T15:00:46;10.40;;;8.05;;
59516;SDS011;45342;42.662;27.718;2022-08-18T15:03:12;11.18;;;8.43;;
59516;SDS011;45342;42.662;27.718;2022-08-18T15:05:38;9.38;;;7.95;;
59516;SDS011;45342;42.662;27.718;2022-08-18T15:08:03;11.00;;;7.80;;
59516;SDS011;45342;42.662;27.718;2022-08-18T15:10:29;9.77;;;7.78;;
59516;SDS011;45342;42.662;27.718;2022-08-18T15:12:56;8.60;;;7.70;;
59516;SDS011;45342;42.662;27.718;2022-08-18T15:15:22;8.70;;;7.80;;
59516;SDS011;45342;42.662;27.718;2022-08-18T15:17:49;8.38;;;7.50;;
59516;SDS011;45342;42.662;27.718;2022-08-18T15:20:15;9.73;;;7.50;;
59516;SDS011;45342;42.662;27.718;2022-08-18T15:22:42;8.45;;;6.90;;
59516;SDS011;45342;42.662;27.718;2022-08-18T15:28:01;8.98;;;7.43;;
59516;SDS011;45342;42.662;27.718;2022-08-18T15:30:27;10.55;;;7.72;;
59516;SDS011;45342;42.662;27.718;2022-08-18T15:32:53;8.43;;;7.43;;
59516;SDS011;45342;42.662;27.718;2022-08-18T15:38:02;9.05;;;7.38;;
59516;SDS011;45342;42.662;27.718;2022-08-18T15:40:29;9.85;;;7.97;;
59516;SDS011;45342;42.662;27.718;2022-08-18T15:42:55;9.35;;;7.35;;
59516;SDS011;45342;42.662;27.718;2022-08-18T15:45:25;8.55;;;7.32;;
59516;SDS011;45342;42.662;27.718;2022-08-18T15:47:53;9.32;;;7.60;;
59516;SDS011;45342;42.662;27.718;2022-08-18T15:50:23;8.32;;;7.53;;
59516;SDS011;45342;42.662;27.718;2022-08-18T15:55:22;9.38;;;7.80;;
59516;SDS011;45342;42.662;27.718;2022-08-18T15:57:49;10.02;;;7.97;;
59516;SDS011;45342;42.662;27.718;2022-08-18T16:00:16;10.05;;;7.78;;
59516;SDS011;45342;42.662;27.718;2022-08-18T16:02:48;8.48;;;7.13;;
59516;SDS011;45342;42.662;27.718;2022-08-18T16:05:16;10.55;;;7.45;;
59516;SDS011;45342;42.662;27.718;2022-08-18T16:07:42;11.50;;;7.65;;
59516;SDS011;45342;42.662;27.718;2022-08-18T16:10:10;9.90;;;7.60;;
59516;SDS011;45342;42.662;27.718;2022-08-18T16:12:36;9.57;;;7.38;;
59516;SDS011;45342;42.662;27.718;2022-08-18T16:15:01;9.20;;;7.60;;
59516;SDS011;45342;42.662;27.718;2022-08-18T16:17:29;9.35;;;7.38;;
59516;SDS011;45342;42.662;27.718;2022-08-18T16:19:56;12.07;;;7.78;;
59516;SDS011;45342;42.662;27.718;2022-08-18T16:22:26;11.45;;;7.57;;
59516;SDS011;45342;42.662;27.718;2022-08-18T16:24:53;9.05;;;7.32;;
59516;SDS011;45342;42.662;27.718;2022-08-18T16:27:37;10.48;;;7.63;;
59516;SDS011;45342;42.662;27.718;2022-08-18T16:30:11;10.13;;;7.57;;
59516;SDS011;45342;42.662;27.718;2022-08-18T16:32:43;10.35;;;7.93;;
59516;SDS011;45342;42.662;27.718;2022-08-18T16:35:30;11.18;;;8.43;;
59516;SDS011;45342;42.662;27.718;2022-08-18T16:38:06;10.73;;;7.90;;
59516;SDS011;45342;42.662;27.718;2022-08-18T16:40:33;11.70;;;8.07;;
59516;SDS011;45342;42.662;27.718;2022-08-18T16:43:01;9.65;;;7.90;;
59516;SDS011;45342;42.662;27.718;2022-08-18T16:45:27;10.32;;;8.13;;
59516;SDS011;45342;42.662;27.718;2022-08-18T16:47:55;10.45;;;8.18;;
59516;SDS011;45342;42.662;27.718;2022-08-18T16:50:21;9.70;;;8.18;;
59516;SDS011;45342;42.662;27.718;2022-08-18T16:52:49;15.32;;;8.73;;
59516;SDS011;45342;42.662;27.718;2022-08-18T16:55:14;11.20;;;8.75;;
59516;SDS011;45342;42.662;27.718;2022-08-18T17:00:43;11.35;;;8.93;;
59516;SDS011;45342;42.662;27.718;2022-08-18T17:03:30;11.05;;;8.40;;
59516;SDS011;45342;42.662;27.718;2022-08-18T17:08:41;15.18;;;10.40;;
59516;SDS011;45342;42.662;27.718;2022-08-18T17:11:11;16.17;;;10.18;;
59516;SDS011;45342;42.662;27.718;2022-08-18T17:13:39;15.45;;;9.55;;
59516;SDS011;45342;42.662;27.718;2022-08-18T17:16:06;19.60;;;10.55;;
59516;SDS011;45342;42.662;27.718;2022-08-18T17:18:32;18.80;;;10.32;;
59516;SDS011;45342;42.662;27.718;2022-08-18T17:21:05;18.35;;;10.73;;
59516;SDS011;45342;42.662;27.718;2022-08-18T17:23:32;21.27;;;11.25;;
59516;SDS011;45342;42.662;27.718;2022-08-18T17:25:58;21.52;;;11.00;;
59516;SDS011;45342;42.662;27.718;2022-08-18T17:28:24;24.13;;;12.05;;
59516;SDS011;45342;42.662;27.718;2022-08-18T17:30:56;21.02;;;11.57;;
59516;SDS011;45342;42.662;27.718;2022-08-18T17:33:26;20.15;;;11.75;;
59516;SDS011;45342;42.662;27.718;2022-08-18T17:35:54;22.38;;;12.20;;
59516;SDS011;45342;42.662;27.718;2022-08-18T17:38:25;19.42;;;12.18;;
59516;SDS011;45342;42.662;27.718;2022-08-18T17:40:56;20.60;;;11.70;;
59516;SDS011;45342;42.662;27.718;2022-08-18T17:43:28;24.38;;;12.45;;
59516;SDS011;45342;42.662;27.718;2022-08-18T17:45:56;20.60;;;11.93;;
59516;SDS011;45342;42.662;27.718;2022-08-18T17:48:33;18.02;;;11.65;;
59516;SDS011;45342;42.662;27.718;2022-08-18T17:51:13;18.75;;;11.00;;
59516;SDS011;45342;42.662;27.718;2022-08-18T17:54:08;18.77;;;12.43;;
59516;SDS011;45342;42.662;27.718;2022-08-18T17:56:45;20.50;;;11.90;;
59516;SDS011;45342;42.662;27.718;2022-08-18T17:59:30;19.73;;;11.90;;
59516;SDS011;45342;42.662;27.718;2022-08-18T18:05:01;19.25;;;11.90;;
59516;SDS011;45342;42.662;27.718;2022-08-18T18:07:31;18.33;;;11.65;;
59516;SDS011;45342;42.662;27.718;2022-08-18T18:12:38;18.17;;;12.23;;
59516;SDS011;45342;42.662;27.718;2022-08-18T18:15:11;20.77;;;12.38;;
59516;SDS011;45342;42.662;27.718;2022-08-18T18:17:39;22.42;;;12.23;;
59516;SDS011;45342;42.662;27.718;2022-08-18T18:20:11;19.00;;;11.85;;
59516;SDS011;45342;42.662;27.718;2022-08-18T18:23:15;20.98;;;12.05;;
59516;SDS011;45342;42.662;27.718;2022-08-18T18:25:44;19.95;;;11.90;;
59516;SDS011;45342;42.662;27.718;2022-08-18T18:28:31;20.73;;;11.85;;
59516;SDS011;45342;42.662;27.718;2022-08-18T18:30:58;17.17;;;11.68;;
59516;SDS011;45342;42.662;27.718;2022-08-18T18:33:44;21.55;;;12.27;;
59516;SDS011;45342;42.662;27.718;2022-08-18T18:36:10;21.33;;;11.90;;
59516;SDS011;45342;42.662;27.718;2022-08-18T18:38:37;20.27;;;12.20;;
59516;SDS011;45342;42.662;27.718;2022-08-18T18:43:42;18.58;;;11.85;;
59516;SDS011;45342;42.662;27.718;2022-08-18T18:51:06;19.00;;;11.55;;
59516;SDS011;45342;42.662;27.718;2022-08-18T18:53:46;17.63;;;11.98;;
59516;SDS011;45342;42.662;27.718;2022-08-18T19:04:06;18.77;;;12.60;;
59516;SDS011;45342;42.662;27.718;2022-08-18T19:06:58;18.83;;;12.00;;
59516;SDS011;45342;42.662;27.718;2022-08-18T19:09:44;15.52;;;11.43;;
59516;SDS011;45342;42.662;27.718;2022-08-18T19:14:41;18.40;;;11.82;;
59516;SDS011;45342;42.662;27.718;2022-08-18T19:19:58;16.23;;;11.60;;
59516;SDS011;45342;42.662;27.718;2022-08-18T19:22:49;17.67;;;12.30;;